Time;durP1;ratioP1;P1;durP2;ratioP2;P2;SDS_P1;SDS_P2;PMS_P1;PMS_P2;Temp;Humidity;BMP_temperature;BMP_pressure;BME280_temperature;BME280_humidity;BME280_pressure;Samples;Min_cycle;Max_cycle;Signal;HPM_P1;HPM_P2
2021/04/12 00:01:22;;;;;;;15.53;9.73;;;;;;;9.84;53.62;100194.95;121982;1156;22570;-73
2021/04/12 00:04:04;;;;;;;13.63;8.85;;;;;;;9.82;53.32;100194.28;121751;1158;22556;-73
2021/04/12 00:06:44;;;;;;;15.40;9.18;;;;;;;9.80;53.51;100204.20;122154;1156;22559;-74
2021/04/12 00:09:46;;;;;;;15.48;9.23;;;;;;;9.75;53.89;100204.67;121771;1156;22556;-73
2021/04/12 00:12:33;;;;;;;14.15;7.95;;;;;;;9.67;53.88;100207.33;122052;1155;22544;-73
2021/04/12 00:15:56;;;;;;;16.23;10.35;;;;;;;9.59;54.35;100204.68;121776;1155;22540;-75
2021/04/12 00:18:52;;;;;;;16.05;9.90;;;;;;;9.53;54.44;100197.42;121517;1158;23269;-74
2021/04/12 00:21:46;;;;;;;15.13;8.73;;;;;;;9.47;54.17;100201.56;121244;1159;23358;-73
2021/04/12 00:24:56;;;;;;;16.73;8.10;;;;;;;9.44;54.73;100204.52;121226;1158;25492;-74
2021/04/12 00:27:53;;;;;;;12.88;8.58;;;;;;;9.39;54.98;100205.00;121528;1159;22664;-74
2021/04/12 00:30:30;;;;;;;12.80;8.08;;;;;;;9.35;54.97;100206.31;121230;1158;22577;-74
2021/04/12 00:33:12;;;;;;;12.15;8.78;;;;;;;9.31;55.38;100205.00;121494;1158;22575;-74
2021/04/12 00:36:01;;;;;;;14.28;8.70;;;;;;;9.27;55.22;100206.32;121486;1159;22573;-74
2021/04/12 00:38:52;;;;;;;12.90;8.58;;;;;;;9.22;55.43;100203.34;121251;1159;22619;-74
2021/04/12 00:41:38;;;;;;;16.43;9.40;;;;;;;9.19;55.44;100203.66;121303;1158;24478;-74
2021/04/12 00:44:20;;;;;;;13.63;9.17;;;;;;;9.14;55.81;100208.61;121488;1158;22567;-74
2021/04/12 00:47:17;;;;;;;10.93;8.00;;;;;;;9.09;55.67;100211.70;121232;1159;22603;-74
2021/04/12 00:50:16;;;;;;;14.70;8.27;;;;;;;9.05;55.99;100206.93;121482;1159;25121;-74
2021/04/12 00:53:14;;;;;;;15.98;9.00;;;;;;;9.02;55.74;100207.25;121483;1158;22614;-73
2021/04/12 00:56:06;;;;;;;12.18;9.10;;;;;;;9.00;56.45;100211.84;122110;1155;22580;-73
2021/04/12 00:58:55;;;;;;;;;;;;;;;8.94;56.42;100208.88;121983;1156;22578;-73
2021/04/12 01:01:46;;;;;;;13.35;8.20;;;;;;;8.88;56.78;100206.89;122091;1156;21351;-73
2021/04/12 01:04:52;;;;;;;16.13;8.88;;;;;;;8.89;56.32;100203.26;121739;1155;22545;-73
2021/04/12 01:07:50;;;;;;;12.70;9.30;;;;;;;8.86;57.09;100214.14;122090;1156;22559;-73
2021/04/12 01:10:47;;;;;;;11.95;8.10;;;;;;;8.82;57.06;100209.33;122032;1155;22567;-74
2021/04/12 01:14:02;;;;;;;14.58;8.60;;;;;;;8.75;57.00;100206.52;122042;1156;22557;-73
2021/04/12 01:17:11;;;;;;;13.80;7.75;;;;;;;8.66;57.34;100210.95;121713;1153;24488;-73
2021/04/12 01:20:36;;;;;;;14.00;8.60;;;;;;;8.59;57.67;100202.00;122026;1153;22606;-73
2021/04/12 01:23:31;;;;;;;10.85;7.93;;;;;;;8.55;57.85;100203.31;122066;1155;22681;-73
2021/04/12 01:26:39;;;;;;;11.53;8.18;;;;;;;8.51;57.74;100199.34;122048;1155;22563;-73
2021/04/12 01:30:05;;;;;;;14.80;9.28;;;;;;;8.45;58.25;100192.08;122057;1155;22541;-73
2021/04/12 01:33:06;;;;;;;12.50;8.88;;;;;;;8.40;58.38;100195.20;122114;1155;22547;-73
2021/04/12 01:35:37;;;;;;;13.60;9.15;;;;;;;8.40;58.23;100197.00;122098;1155;22552;-74
2021/04/12 01:38:57;;;;;;;12.20;8.88;;;;;;;8.41;58.51;100198.64;122160;1155;22551;-73
2021/04/12 01:41:50;;;;;;;12.68;8.38;;;;;;;8.35;58.52;100197.43;122088;1153;24529;-74
2021/04/12 01:45:03;;;;;;;14.48;10.20;;;;;;;8.34;58.69;100198.42;122102;1155;24686;-75
2021/04/12 01:48:08;;;;;;;12.05;8.25;;;;;;;8.29;58.87;100200.68;121747;1155;22564;-74
2021/04/12 01:51:25;;;;;;;14.83;9.65;;;;;;;8.26;58.98;100193.09;121488;1158;22625;-74
2021/04/12 01:54:05;;;;;;;16.80;9.05;;;;;;;8.26;59.13;100198.36;121411;1158;22579;-74
2021/04/12 01:57:14;;;;;;;13.40;8.25;;;;;;;8.25;59.42;100188.83;121546;1159;22561;-73
2021/04/12 02:00:34;;;;;;;13.43;7.90;;;;;;;8.24;59.28;100202.97;121541;1159;23499;-73
2021/04/12 02:03:43;;;;;;;12.73;8.50;;;;;;;8.19;59.24;100205.23;121540;1158;23496;-73
2021/04/12 02:07:01;;;;;;;10.68;8.18;;;;;;;8.16;59.49;100202.91;121439;1158;22608;-73
2021/04/12 02:10:11;;;;;;;13.93;9.43;;;;;;;8.11;59.49;100216.55;121517;1159;22634;-74
2021/04/12 02:13:00;;;;;;;12.23;8.33;;;;;;;8.09;59.46;100217.67;121435;1159;24722;-73
2021/04/12 02:15:58;;;;;;;13.98;9.53;;;;;;;8.10;59.71;100222.80;121498;1158;22571;-73
2021/04/12 02:19:15;;;;;;;12.80;8.80;;;;;;;8.14;59.88;100234.66;121538;1158;24777;-73
2021/04/12 02:22:53;;;;;;;14.68;9.90;;;;;;;8.20;60.15;100227.95;121197;1160;22706;-73
2021/04/12 02:26:20;;;;;;;12.18;9.50;;;;;;;8.24;60.05;100237.19;121105;1161;22645;-73
2021/04/12 02:29:07;;;;;;;13.85;9.50;;;;;;;8.27;60.05;100241.32;121578;1158;23490;-72
2021/04/12 02:31:46;;;;;;;12.98;9.43;;;;;;;8.28;59.99;100240.33;121595;1158;22560;-74
2021/04/12 02:35:22;;;;;;;14.83;8.40;;;;;;;8.24;60.00;100234.55;121627;1158;23812;-75
2021/04/12 02:38:00;;;;;;;12.93;9.40;;;;;;;8.14;59.62;100234.66;121625;1155;22623;-73
2021/04/12 02:41:00;;;;;;;13.35;8.95;;;;;;;8.08;60.10;100230.00;121439;1158;23357;-75
2021/04/12 02:44:40;;;;;;;17.40;9.18;;;;;;;8.04;60.11;100228.67;121515;1158;23342;-73
2021/04/12 02:47:53;;;;;;;11.90;8.63;;;;;;;7.98;60.35;100232.73;121158;1161;24487;-75
2021/04/12 02:50:39;;;;;;;13.53;11.50;;;;;;;7.97;60.29;100220.57;121131;1159;22581;-73
2021/04/12 02:53:57;;;;;;;17.33;12.57;;;;;;;7.91;60.40;100215.92;120996;1161;24833;-74
2021/04/12 02:57:08;;;;;;;23.33;14.73;;;;;;;7.85;60.57;100215.70;120952;1161;22583;-74
2021/04/12 03:00:13;;;;;;;19.08;10.83;;;;;;;7.77;60.54;100222.56;121143;1161;22619;-74
2021/04/12 03:03:38;;;;;;;15.58;10.60;;;;;;;7.69;60.87;100214.59;121171;1159;22585;-74
2021/04/12 03:06:56;;;;;;;18.53;13.38;;;;;;;7.57;61.08;100228.97;121177;1161;22727;-74
2021/04/12 03:09:52;;;;;;;18.65;13.33;;;;;;;7.51;61.17;100225.13;121173;1161;22906;-73
2021/04/12 03:12:45;;;;;;;27.23;17.00;;;;;;;7.49;61.40;100234.96;121176;1161;22580;-74
2021/04/12 03:15:58;;;;;;;28.80;18.43;;;;;;;7.49;61.66;100232.33;121170;1160;24956;-73
2021/04/12 03:19:17;;;;;;;31.60;21.20;;;;;;;7.50;62.03;100241.07;121446;1158;22564;-74
2021/04/12 03:22:13;;;;;;;27.28;18.50;;;;;;;7.52;62.20;100242.55;121468;1158;22624;-74
2021/04/12 03:24:47;;;;;;;28.75;17.83;;;;;;;7.52;61.69;100242.55;121690;1155;22659;-74
2021/04/12 03:28:00;;;;;;;18.73;13.88;;;;;;;7.49;61.78;100244.66;122034;1154;22570;-73
2021/04/12 03:31:01;;;;;;;19.00;13.53;;;;;;;7.34;61.86;100244.36;121818;1155;25220;-74
2021/04/12 03:34:10;;;;;;;22.53;14.00;;;;;;;7.25;62.34;100232.11;122117;1155;22559;-74
2021/04/12 03:36:39;;;;;;;20.05;14.33;;;;;;;7.17;62.48;100242.55;122074;1155;23457;-74
2021/04/12 03:39:17;;;;;;;18.58;12.68;;;;;;;7.13;62.70;100243.80;121731;1155;24691;-74
2021/04/12 03:42:17;;;;;;;26.13;16.15;;;;;;;7.08;62.94;100239.82;121719;1155;22563;-73
2021/04/12 03:45:22;;;;;;;20.48;14.10;;;;;;;7.05;63.51;100248.00;122041;1155;22559;-74
2021/04/12 03:48:30;;;;;;;22.98;14.35;;;;;;;7.02;63.51;100235.16;121698;1155;23342;-74
2021/04/12 03:51:06;;;;;;;18.63;13.00;;;;;;;6.99;63.41;100243.33;122130;1155;22633;-74
2021/04/12 03:53:54;;;;;;;17.70;13.07;;;;;;;6.98;63.38;100240.86;122050;1155;22586;-74
2021/04/12 03:56:38;;;;;;;17.70;13.45;;;;;;;6.94;63.61;100242.13;122032;1153;22550;-74
2021/04/12 03:59:53;;;;;;;18.85;13.85;;;;;;;6.91;63.78;100248.50;122126;1153;22559;-74
2021/04/12 04:03:06;;;;;;;22.78;13.93;;;;;;;6.91;63.96;100250.30;122160;1155;22537;-74
2021/04/12 04:06:18;;;;;;;20.38;14.23;;;;;;;6.96;64.23;100255.92;122122;1155;23402;-74
2021/04/12 04:09:54;;;;;;;28.03;16.25;;;;;;;7.02;64.06;100258.80;122038;1153;24706;-74
2021/04/12 04:12:56;;;;;;;31.23;18.80;;;;;;;7.10;64.13;100246.72;122123;1155;22615;-74
2021/04/12 04:16:12;;;;;;;23.13;14.58;;;;;;;7.11;64.17;100262.34;122145;1153;24432;-74
2021/04/12 04:19:12;;;;;;;27.05;17.15;;;;;;;7.18;64.35;100262.59;122104;1155;24383;-74
2021/04/12 04:21:51;;;;;;;23.60;15.88;;;;;;;7.27;64.11;100259.90;122061;1155;22551;-74
2021/04/12 04:24:54;;;;;;;31.18;19.43;;;;;;;7.35;64.04;100258.33;122127;1153;22547;-74
2021/04/12 04:28:16;;;;;;;28.73;18.87;;;;;;;7.41;63.68;100255.92;122101;1153;22540;-74
2021/04/12 04:31:25;;;;;;;34.70;19.30;;;;;;;7.45;63.77;100256.45;122036;1155;24076;-75
2021/04/12 04:34:20;;;;;;;35.75;20.35;;;;;;;7.45;64.11;100253.82;122076;1155;23047;-74
2021/04/12 04:37:44;;;;;;;41.87;22.60;;;;;;;7.52;63.91;100255.69;122074;1155;22570;-74
2021/04/12 04:40:42;;;;;;;54.68;29.73;;;;;;;7.63;63.82;100266.95;121296;1161;22608;-75
2021/04/12 04:43:20;;;;;;;33.75;22.55;;;;;;;7.77;63.95;100279.59;121153;1159;22611;-75
2021/04/12 04:46:53;;;;;;;43.13;23.40;;;;;;;7.91;63.72;100278.22;121163;1161;22601;-75
2021/04/12 04:49:47;;;;;;;23.98;16.95;;;;;;;8.09;63.51;100286.08;121140;1160;22807;-75
2021/04/12 04:52:59;;;;;;;28.08;19.88;;;;;;;8.25;63.37;100280.94;121161;1159;22609;-74
2021/04/12 04:55:52;;;;;;;34.10;24.10;;;;;;;8.39;62.84;100283.02;121197;1159;22726;-75
2021/04/12 04:58:44;;;;;;;30.25;21.83;;;;;;;8.48;62.80;100297.07;121354;1157;22568;-74
2021/04/12 05:01:46;;;;;;;29.77;22.13;;;;;;;8.64;62.63;100293.71;121502;1159;24780;-74
2021/04/12 05:04:35;;;;;;;49.40;32.93;;;;;;;8.77;62.38;100294.11;121488;1158;22565;-74
2021/04/12 05:07:40;;;;;;;50.53;33.75;;;;;;;8.89;62.13;100289.38;121585;1158;22576;-74
2021/04/12 05:10:54;;;;;;;39.63;27.88;;;;;;;9.01;61.67;100293.38;121473;1158;22671;-74
2021/04/12 05:14:10;;;;;;;45.30;27.13;;;;;;;9.13;61.18;100301.81;121602;1158;22561;-74
2021/04/12 05:17:01;;;;;;;47.28;29.08;;;;;;;9.13;60.76;100300.02;121701;1155;23268;-75
2021/04/12 05:20:26;;;;;;;38.25;24.98;;;;;;;9.21;60.47;100308.94;122095;1153;22548;-74
2021/04/12 05:23:35;;;;;;;38.48;27.13;;;;;;;9.25;60.67;100308.45;121576;1158;22604;-74
2021/04/12 05:27:04;;;;;;;31.33;21.80;;;;;;;9.33;60.25;100326.09;121575;1158;22718;-74
2021/04/12 05:30:17;;;;;;;29.47;20.57;;;;;;;9.35;60.02;100334.67;121613;1158;22576;-74
2021/04/12 05:32:54;;;;;;;32.25;21.70;;;;;;;9.43;60.23;100335.53;121593;1156;24712;-74
2021/04/12 05:36:21;;;;;;;26.20;19.97;;;;;;;9.55;59.85;100348.41;121305;1161;23023;-75
2021/04/12 05:39:15;;;;;;;26.38;16.70;;;;;;;9.72;59.74;100338.72;121298;1158;25039;-75
2021/04/12 05:42:22;;;;;;;29.07;16.23;;;;;;;9.81;59.33;100333.30;121639;1155;22557;-74
2021/04/12 05:45:35;;;;;;;24.88;15.18;;;;;;;9.89;58.93;100340.38;121540;1158;24280;-75
2021/04/12 05:48:56;;;;;;;20.13;15.00;;;;;;;10.20;59.35;100350.32;121557;1158;22549;-74
2021/04/12 05:51:52;;;;;;;19.00;15.03;;;;;;;10.67;59.59;100363.67;121561;1158;22613;-76
2021/04/12 05:54:35;;;;;;;21.40;15.30;;;;;;;11.13;58.46;100369.17;121992;1155;23335;-74
2021/04/12 05:57:40;;;;;;;20.85;15.23;;;;;;;11.54;58.36;100371.63;122115;1155;22777;-75
2021/04/12 06:00:26;;;;;;;25.85;20.15;;;;;;;11.96;57.64;100370.39;122070;1153;24723;-74
2021/04/12 06:03:34;;;;;;;18.10;15.35;;;;;;;12.31;56.46;100370.80;122163;1155;22589;-74
2021/04/12 06:06:25;;;;;;;19.65;15.15;;;;;;;12.68;56.20;100380.56;122195;1155;22539;-74
2021/04/12 06:09:34;;;;;;;17.67;13.90;;;;;;;13.00;55.32;100365.33;122062;1153;22569;-74
2021/04/12 06:12:49;;;;;;;15.83;12.25;;;;;;;13.34;54.98;100370.09;122113;1155;22635;-76
2021/04/12 06:16:01;;;;;;;25.10;19.95;;;;;;;13.64;54.26;100390.25;122089;1155;22553;-75
2021/04/12 06:18:57;;;;;;;24.58;17.78;;;;;;;13.96;53.54;100389.96;122012;1156;22561;-76
2021/04/12 06:21:50;;;;;;;20.63;16.25;;;;;;;14.15;52.14;100392.00;122148;1153;24436;-75
2021/04/12 06:24:32;;;;;;;21.48;18.68;;;;;;;14.30;52.44;100405.23;122153;1152;22544;-76
2021/04/12 06:27:19;;;;;;;21.68;19.48;;;;;;;14.43;52.10;100408.01;122102;1155;25965;-74
2021/04/12 06:30:11;;;;;;;23.28;21.00;;;;;;;14.38;52.11;100423.69;122170;1153;22547;-74
2021/04/12 06:33:17;;;;;;;24.20;21.68;;;;;;;14.13;51.50;100417.95;122079;1155;22700;-76
2021/04/12 06:36:13;;;;;;;24.90;22.25;;;;;;;13.63;51.96;100419.65;122075;1155;22564;-76
2021/04/12 06:39:19;;;;;;;29.28;24.23;;;;;;;13.27;53.23;100427.55;122166;1154;23955;-74
2021/04/12 06:42:36;;;;;;;27.68;24.73;;;;;;;13.01;53.90;100435.92;122105;1155;23567;-76
2021/04/12 06:45:31;;;;;;;29.95;27.10;;;;;;;12.68;54.23;100437.05;122149;1155;22637;-74
2021/04/12 06:48:30;;;;;;;31.73;28.60;;;;;;;12.31;54.72;100444.97;122140;1155;22540;-74
2021/04/12 06:51:38;;;;;;;44.28;39.95;;;;;;;11.86;55.72;100442.12;121757;1155;22549;-74
2021/04/12 06:55:19;;;;;;;35.00;31.60;;;;;;;11.63;57.01;100436.74;122098;1153;22606;-75
2021/04/12 06:58:25;;;;;;;34.38;30.85;;;;;;;11.50;57.88;100442.58;121499;1158;24482;-74
2021/04/12 07:01:31;;;;;;;35.50;32.00;;;;;;;11.34;58.09;100450.57;121465;1159;24185;-75
2021/04/12 07:04:16;;;;;;;37.90;34.03;;;;;;;11.23;58.71;100437.69;121161;1161;22582;-75
2021/04/12 07:07:35;;;;;;;33.05;29.75;;;;;;;11.24;59.37;100442.83;121117;1162;23319;-75
2021/04/12 07:10:23;;;;;;;37.18;33.40;;;;;;;11.24;59.63;100442.83;121125;1161;24404;-75
2021/04/12 07:13:24;;;;;;;37.08;33.38;;;;;;;11.26;59.80;100445.28;120939;1161;24171;-75
2021/04/12 07:16:25;;;;;;;37.45;33.75;;;;;;;11.20;59.74;100444.17;120841;1164;22603;-76
2021/04/12 07:19:44;;;;;;;36.98;33.28;;;;;;;11.10;60.06;100443.53;120869;1164;22625;-76
2021/04/12 07:22:44;;;;;;;33.80;30.50;;;;;;;11.02;60.14;100430.31;120739;1168;22574;-76
2021/04/12 07:25:47;;;;;;;34.55;31.05;;;;;;;10.95;60.28;100445.20;120647;1168;22650;-75
2021/04/12 07:28:49;;;;;;;33.17;29.70;;;;;;;10.84;60.82;100438.45;120716;1168;22613;-76
2021/04/12 07:32:03;;;;;;;36.10;32.30;;;;;;;10.77;60.71;100443.58;120717;1161;22582;-76
2021/04/12 07:35:03;;;;;;;37.13;33.38;;;;;;;10.64;60.59;100450.36;121208;1158;24304;-76
2021/04/12 07:37:59;;;;;;;34.28;30.25;;;;;;;10.50;61.18;100450.03;121233;1161;22615;-76
2021/04/12 07:41:05;;;;;;;34.13;30.60;;;;;;;10.40;61.21;100454.66;121211;1158;22667;-75
2021/04/12 07:44:13;;;;;;;30.05;27.13;;;;;;;10.36;61.32;100461.22;121251;1158;22571;-76
2021/04/12 07:47:19;;;;;;;30.80;27.80;;;;;;;10.34;61.86;100471.14;121134;1161;22758;-76
2021/04/12 07:50:23;;;;;;;31.60;28.00;;;;;;;10.26;62.13;100476.39;121026;1163;22949;-75
2021/04/12 07:53:38;;;;;;;30.38;27.33;;;;;;;10.22;62.25;100481.14;121032;1164;22575;-75
2021/04/12 07:56:53;;;;;;;30.20;27.13;;;;;;;10.14;62.12;100479.33;121206;1158;22652;-74
2021/04/12 07:59:30;;;;;;;28.23;25.48;;;;;;;10.07;61.83;100488.06;121631;1156;22864;-74
2021/04/12 08:02:42;;;;;;;26.70;24.05;;;;;;;10.01;62.13;100500.08;121558;1159;22574;-74
2021/04/12 08:05:35;;;;;;;23.38;21.18;;;;;;;9.90;62.18;100508.30;121801;1156;22587;-75
2021/04/12 08:08:46;;;;;;;21.40;19.30;;;;;;;9.89;62.24;100512.72;122071;1155;22598;-77
2021/04/12 08:12:15;;;;;;;20.25;18.25;;;;;;;9.92;62.66;100514.22;122163;1153;22549;-75
2021/04/12 08:15:20;;;;;;;18.78;17.03;;;;;;;9.95;62.27;100526.28;122220;1155;22556;-75
2021/04/12 08:18:33;;;;;;;18.08;16.25;;;;;;;9.98;62.71;100521.51;122159;1154;22547;-75
2021/04/12 08:21:51;;;;;;;18.35;16.63;;;;;;;10.02;62.20;100537.84;122068;1155;22581;-75
2021/04/12 08:24:46;;;;;;;22.20;16.00;;;;;;;10.11;62.21;100547.45;121594;1158;22572;-77
2021/04/12 08:28:15;;;;;;;16.33;14.73;;;;;;;10.22;61.94;100548.97;121482;1158;22575;-76
2021/04/12 08:31:24;;;;;;;18.37;15.13;;;;;;;10.35;61.76;100560.75;120973;1164;24767;-77
2021/04/12 08:34:14;;;;;;;14.60;13.20;;;;;;;10.42;61.23;100544.27;120879;1167;25260;-75
2021/04/12 08:37:52;;;;;;;13.87;12.57;;;;;;;10.48;61.09;100540.98;120720;1166;25116;-75
2021/04/12 08:40:55;;;;;;;14.80;13.40;;;;;;;10.50;60.81;100558.33;120560;1168;22645;-76
2021/04/12 08:44:10;;;;;;;15.30;13.90;;;;;;;10.52;60.79;100569.53;120421;1171;24067;-76
2021/04/12 08:47:15;;;;;;;15.85;14.35;;;;;;;10.53;60.36;100573.85;120422;1171;23412;-74
2021/04/12 08:50:17;;;;;;;16.10;14.50;;;;;;;10.57;60.52;100575.17;120611;1168;23222;-75
2021/04/12 08:53:21;;;;;;;14.93;13.43;;;;;;;10.58;60.10;100576.82;120661;1168;22634;-75
2021/04/12 08:56:20;;;;;;;18.28;12.25;;;;;;;10.57;60.37;100587.56;120646;1167;22617;-76
2021/04/12 08:58:59;;;;;;;12.45;11.10;;;;;;;10.58;59.64;100592.67;120759;1164;22594;-75
2021/04/12 09:02:27;;;;;;;13.57;10.33;;;;;;;10.55;59.77;100590.34;120779;1165;22613;-75
2021/04/12 09:05:35;;;;;;;14.90;13.15;;;;;;;10.51;59.79;100594.31;120976;1161;24740;-76
2021/04/12 09:08:44;;;;;;;12.80;11.50;;;;;;;10.52;59.92;100603.05;121097;1161;24710;-74
2021/04/12 09:11:55;;;;;;;12.98;11.78;;;;;;;10.56;59.78;100607.88;120945;1164;22773;-74
2021/04/12 09:15:06;;;;;;;13.37;11.40;;;;;;;10.54;59.66;100609.84;121130;1161;22894;-75
2021/04/12 09:18:21;;;;;;;17.90;12.65;;;;;;;10.55;60.00;100614.13;121487;1158;24722;-75
2021/04/12 09:21:10;;;;;;;12.20;10.80;;;;;;;10.58;59.47;100631.47;121708;1155;22554;-75
2021/04/12 09:24:05;;;;;;;15.58;11.68;;;;;;;10.51;59.49;100622.55;122109;1154;23204;-75
2021/04/12 09:27:05;;;;;;;13.00;11.78;;;;;;;10.46;59.70;100624.83;122087;1155;22960;-75
2021/04/12 09:30:15;;;;;;;12.83;11.70;;;;;;;10.36;59.36;100619.67;121765;1154;23559;-76
2021/04/12 09:33:30;;;;;;;16.13;11.93;;;;;;;10.16;59.35;100624.34;122132;1153;22549;-75
2021/04/12 09:36:20;;;;;;;15.05;12.85;;;;;;;9.98;59.82;100619.16;122207;1155;23333;-75
2021/04/12 09:39:37;;;;;;;12.55;11.30;;;;;;;9.95;60.36;100629.20;122051;1152;24693;-75
2021/04/12 09:42:41;;;;;;;14.48;12.48;;;;;;;9.95;60.12;100626.56;122108;1155;22565;-75
2021/04/12 09:46:00;;;;;;;17.55;13.33;;;;;;;9.95;60.57;100631.84;122149;1152;24489;-75
2021/04/12 09:49:12;;;;;;;14.13;11.03;;;;;;;9.94;60.31;100640.75;122221;1153;25312;-74
2021/04/12 09:52:05;;;;;;;12.73;11.53;;;;;;;9.89;60.36;100639.38;121581;1156;22787;-75
2021/04/12 09:55:08;;;;;;;13.35;12.13;;;;;;;9.88;60.63;100647.47;121595;1158;22561;-74
2021/04/12 09:58:16;;;;;;;11.48;10.43;;;;;;;9.87;60.55;100646.65;121590;1155;25017;-75
2021/04/12 10:01:08;;;;;;;13.10;11.20;;;;;;;9.84;60.55;100660.16;121646;1156;22567;-75
2021/04/12 10:03:52;;;;;;;13.98;12.50;;;;;;;9.80;60.40;100665.91;121690;1158;22658;-75
2021/04/12 10:07:08;;;;;;;16.95;13.60;;;;;;;9.74;60.53;100656.79;121637;1158;22668;-75
2021/04/12 10:09:53;;;;;;;16.28;14.13;;;;;;;9.71;60.89;100665.02;121660;1158;22559;-75
2021/04/12 10:13:00;;;;;;;17.18;13.95;;;;;;;9.74;61.07;100659.42;121564;1158;22559;-75
2021/04/12 10:16:11;;;;;;;14.37;12.83;;;;;;;9.72;61.01;100666.66;121619;1155;22630;-75
2021/04/12 10:18:43;;;;;;;17.23;14.57;;;;;;;9.59;60.94;100671.50;121538;1158;22554;-75
2021/04/12 10:21:41;;;;;;;17.30;15.00;;;;;;;9.55;61.07;100668.34;121587;1158;23142;-75
2021/04/12 10:24:34;;;;;;;18.20;16.10;;;;;;;9.39;60.86;100679.59;121570;1158;22624;-75
2021/04/12 10:27:19;;;;;;;18.20;16.25;;;;;;;9.26;61.22;100676.50;121515;1158;22568;-75
2021/04/12 10:30:10;;;;;;;15.35;13.95;;;;;;;9.24;61.51;100690.84;121533;1158;22556;-75
2021/04/12 10:32:52;;;;;;;21.53;15.70;;;;;;;9.22;61.90;100682.24;121651;1158;22621;-74
2021/04/12 10:35:30;;;;;;;16.25;14.70;;;;;;;9.23;62.00;100683.89;121728;1155;22655;-75
2021/04/12 10:38:19;;;;;;;15.25;13.40;;;;;;;9.26;62.08;100689.69;121992;1155;22538;-75
2021/04/12 10:40:59;;;;;;;16.83;14.30;;;;;;;9.26;62.14;100684.41;121620;1156;22575;-75
2021/04/12 10:44:22;;;;;;;17.55;15.70;;;;;;;9.22;62.02;100700.69;121689;1155;23506;-75
2021/04/12 10:47:40;;;;;;;17.35;15.58;;;;;;;9.18;62.17;100693.08;121559;1155;22564;-75
2021/04/12 10:50:35;;;;;;;21.33;16.40;;;;;;;9.13;62.20;100695.36;121552;1156;22541;-76
2021/04/12 10:53:57;;;;;;;17.95;16.05;;;;;;;9.12;62.22;100698.95;121276;1158;22688;-75
2021/04/12 10:57:12;;;;;;;17.20;14.90;;;;;;;9.02;62.18;100703.46;121200;1158;22640;-75
2021/04/12 10:59:48;;;;;;;18.13;14.88;;;;;;;9.00;62.35;100701.95;121183;1161;22687;-75
2021/04/12 11:02:27;;;;;;;17.55;15.40;;;;;;;8.98;62.51;100701.28;121198;1158;22633;-75
2021/04/12 11:05:19;;;;;;;21.15;16.20;;;;;;;8.95;62.56;100703.23;121232;1160;24421;-75
2021/04/12 11:08:09;;;;;;;18.17;16.37;;;;;;;8.89;62.77;100702.99;121195;1158;25195;-76
2021/04/12 11:11:11;;;;;;;21.00;17.27;;;;;;;8.89;63.08;100703.81;121208;1158;23662;-75
2021/04/12 11:13:51;;;;;;;18.75;15.08;;;;;;;8.85;62.90;100713.00;121532;1158;22840;-75
2021/04/12 11:17:01;;;;;;;22.23;17.50;;;;;;;8.84;63.05;100710.53;121237;1158;22630;-74
2021/04/12 11:20:00;;;;;;;18.63;16.63;;;;;;;8.78;63.27;100711.11;121389;1158;22564;-75
2021/04/12 11:22:58;;;;;;;17.20;15.48;;;;;;;8.74;63.82;100723.75;121509;1158;22611;-74
2021/04/12 11:25:53;;;;;;;19.63;14.78;;;;;;;8.83;63.97;100727.28;121585;1157;23345;-74
2021/04/12 11:29:24;;;;;;;18.40;14.90;;;;;;;8.77;63.68;100725.27;121571;1156;22565;-77
2021/04/12 11:32:30;;;;;;;18.75;15.38;;;;;;;8.71;64.24;100732.77;121506;1158;22580;-75
2021/04/12 11:35:14;;;;;;;19.35;14.30;;;;;;;8.76;64.21;100745.48;121526;1159;22567;-75
2021/04/12 11:38:11;;;;;;;15.80;14.10;;;;;;;8.70;63.97;100740.83;121560;1158;24711;-76
2021/04/12 11:41:19;;;;;;;16.20;14.07;;;;;;;8.60;63.97;100745.31;121486;1158;23446;-75
2021/04/12 11:44:00;;;;;;;18.28;12.70;;;;;;;8.45;64.37;100745.77;121328;1158;22576;-75
2021/04/12 11:46:54;;;;;;;15.73;13.78;;;;;;;8.42;64.36;100751.31;121318;1159;24399;-75
2021/04/12 11:49:50;;;;;;;19.70;17.53;;;;;;;8.33;64.63;100754.80;121241;1158;23351;-75
2021/04/12 11:52:27;;;;;;;18.63;16.28;;;;;;;8.22;64.67;100762.84;121181;1163;22565;-75
2021/04/12 11:55:29;;;;;;;28.73;24.33;;;;;;;8.19;65.05;100771.02;121202;1161;22588;-75
2021/04/12 11:58:16;;;;;;;22.40;19.60;;;;;;;8.11;65.33;100774.38;121202;1161;22571;-74
2021/04/12 12:01:21;;;;;;;16.28;14.63;;;;;;;8.05;65.39;100777.56;121158;1161;22601;-75
2021/04/12 12:04:36;;;;;;;13.67;11.77;;;;;;;7.99;65.75;100780.75;120743;1164;22601;-76
2021/04/12 12:07:31;;;;;;;11.85;10.60;;;;;;;7.91;65.77;100786.72;120975;1163;22585;-75
2021/04/12 12:10:59;;;;;;;18.37;12.57;;;;;;;7.85;66.01;100787.27;120957;1161;22575;-77
2021/04/12 12:14:21;;;;;;;13.33;10.70;;;;;;;7.77;66.00;100787.98;121000;1161;22731;-77
2021/04/12 12:16:58;;;;;;;13.45;10.75;;;;;;;7.67;66.22;100799.47;120959;1161;22765;-76
2021/04/12 12:20:18;;;;;;;15.23;12.27;;;;;;;7.60;66.13;100799.19;121054;1161;22595;-76
2021/04/12 12:22:57;;;;;;;14.83;12.67;;;;;;;7.57;66.48;100809.16;120923;1162;25244;-76
2021/04/12 12:25:51;;;;;;;12.83;11.40;;;;;;;7.55;66.50;100807.47;120969;1164;22604;-76
2021/04/12 12:29:05;;;;;;;18.45;12.33;;;;;;;7.51;67.12;100807.89;120899;1163;25241;-74
2021/04/12 12:32:16;;;;;;;15.40;11.37;;;;;;;7.51;67.48;100808.72;120965;1164;22599;-74
2021/04/12 12:34:57;;;;;;;13.88;12.50;;;;;;;7.44;67.15;100817.30;120790;1164;25228;-74
2021/04/12 12:38:15;;;;;;;22.60;12.40;;;;;;;7.40;67.32;100821.17;120697;1164;22863;-75
2021/04/12 12:40:55;;;;;;;14.40;12.55;;;;;;;7.34;67.77;100835.67;120682;1164;22605;-75
2021/04/12 12:43:36;;;;;;;12.80;11.50;;;;;;;7.30;68.33;100835.11;120640;1167;22647;-75
2021/04/12 12:46:25;;;;;;;12.30;11.00;;;;;;;7.35;69.08;100837.33;120444;1171;22622;-75
2021/04/12 12:49:05;;;;;;;13.50;12.15;;;;;;;7.32;68.40;100832.34;120485;1168;22927;-75
2021/04/12 12:51:40;;;;;;;14.15;12.25;;;;;;;7.27;68.66;100838.01;120437;1168;24456;-75
2021/04/12 12:54:23;;;;;;;14.30;12.20;;;;;;;7.23;69.37;100839.25;120574;1165;22622;-72
2021/04/12 12:57:28;;;;;;;17.25;12.90;;;;;;;7.23;69.08;100847.13;120630;1165;22893;-75
2021/04/12 13:00:18;;;;;;;19.50;15.63;;;;;;;7.11;69.07;100844.73;120781;1164;22581;-73
2021/04/12 13:02:51;;;;;;;16.90;14.70;;;;;;;7.07;69.57;100836.29;121106;1161;22672;-74
2021/04/12 13:05:24;;;;;;;16.13;14.48;;;;;;;7.07;69.80;100842.38;121130;1161;22908;-74
2021/04/12 13:08:12;;;;;;;18.35;16.28;;;;;;;7.06;69.62;100843.34;121202;1158;23686;-74
2021/04/12 13:10:59;;;;;;;18.33;16.18;;;;;;;7.00;69.67;100838.62;121219;1156;22963;-74
2021/04/12 13:14:02;;;;;;;19.68;17.70;;;;;;;6.94;69.92;100844.39;121598;1158;23399;-75
2021/04/12 13:16:38;;;;;;;18.60;16.48;;;;;;;6.92;70.03;100854.19;121377;1159;22593;-76
2021/04/12 13:19:26;;;;;;;15.40;13.97;;;;;;;6.87;69.90;100853.77;121475;1158;24800;-74
2021/04/12 13:22:38;;;;;;;14.60;12.93;;;;;;;6.86;70.61;100862.59;121609;1158;22582;-74
2021/04/12 13:25:30;;;;;;;;;;;;;;;6.79;70.18;100869.33;121320;1161;22617;-75
2021/04/12 13:28:41;;;;;;;20.93;15.73;;;;;;;6.70;70.40;100872.77;121238;1161;22428;-75
2021/04/12 13:31:50;;;;;;;15.75;14.25;;;;;;;6.71;70.86;100869.16;121203;1161;24712;-74
2021/04/12 13:34:30;;;;;;;20.23;17.47;;;;;;;6.75;70.97;100866.14;121163;1161;23509;-76
2021/04/12 13:37:20;;;;;;;18.03;16.40;;;;;;;6.74;70.63;100863.66;121165;1159;22631;-74
2021/04/12 13:40:11;;;;;;;12.45;11.25;;;;;;;6.73;70.84;100865.45;121305;1159;23588;-74
2021/04/12 13:42:52;;;;;;;14.43;11.68;;;;;;;6.71;70.76;100853.41;121165;1161;22674;-75